createdAt,value
2023-02-19T00:00:38.238Z,99.60
2023-02-19T00:03:40.600Z,99.70
2023-02-19T00:06:42.577Z,87.30
2023-02-19T00:09:44.163Z,90.80
2023-02-19T00:12:45.779Z,88.80
2023-02-19T00:15:47.505Z,85.10
2023-02-19T00:18:49.278Z,86.70
2023-02-19T00:21:52.541Z,98.80
2023-02-19T00:24:54.048Z,99.80
2023-02-19T00:27:55.668Z,86.80
2023-02-19T00:31:05.246Z,89.10
2023-02-19T00:34:06.887Z,94.00
2023-02-19T00:37:08.451Z,87.20
2023-02-19T00:40:10.321Z,89.60
2023-02-19T00:43:11.880Z,83.80
2023-02-19T00:46:13.559Z,87.70
2023-02-19T00:49:17.897Z,84.20
2023-02-19T00:52:19.694Z,85.00
2023-02-19T00:55:24.400Z,85.00
2023-02-19T00:58:26.006Z,96.40
2023-02-19T01:01:27.725Z,102.40
2023-02-19T01:04:29.407Z,96.00
2023-02-19T01:07:31.250Z,94.00
2023-02-19T01:10:33.046Z,95.90
2023-02-19T01:13:35.548Z,96.60
2023-02-19T01:16:37.224Z,97.50
2023-02-19T01:19:38.973Z,98.30
2023-02-19T01:22:40.490Z,91.10
2023-02-19T01:25:42.627Z,100.40
2023-02-19T01:28:44.836Z,87.80
2023-02-19T01:31:46.519Z,105.60
2023-02-19T01:34:48.286Z,93.30
2023-02-19T01:37:49.817Z,97.60
2023-02-19T01:41:00.209Z,102.80
2023-02-19T01:47:06.832Z,100.60
2023-02-19T01:50:08.557Z,98.30
2023-02-19T01:53:12.250Z,98.90
2023-02-19T01:56:16.022Z,94.10
2023-02-19T01:59:18.469Z,94.00
2023-02-19T02:02:20.131Z,96.20
2023-02-19T02:05:34.132Z,85.50
2023-02-19T02:08:54.448Z,93.60
2023-02-19T02:11:56.148Z,90.40
2023-02-19T02:14:57.729Z,84.10
2023-02-19T02:18:14.281Z,95.20
2023-02-19T02:21:25.160Z,93.50
2023-02-19T02:24:47.040Z,95.50
2023-02-19T02:27:59.243Z,98.10
2023-02-19T02:31:15.155Z,103.10
2023-02-19T02:34:30.789Z,94.40
2023-02-19T02:37:35.650Z,92.90
2023-02-19T02:40:40.042Z,95.20
2023-02-19T02:43:42.003Z,88.30
2023-02-19T02:46:45.353Z,95.20
2023-02-19T02:50:05.196Z,96.30
2023-02-19T02:53:36.662Z,98.00
2023-02-19T02:56:40.273Z,88.00
2023-02-19T02:59:42.843Z,98.60
2023-02-19T03:02:44.568Z,94.50
2023-02-19T03:05:52.243Z,95.30
2023-02-19T03:09:12.311Z,101.90
2023-02-19T03:12:34.146Z,95.90
2023-02-19T03:16:20.550Z,91.90
2023-02-19T03:19:23.157Z,90.10
2023-02-19T03:22:31.885Z,85.50
2023-02-19T03:25:54.850Z,89.70
2023-02-19T03:29:23.218Z,95.50
2023-02-19T03:32:33.283Z,89.90
2023-02-19T03:36:06.562Z,89.80
2023-02-19T03:39:11.806Z,94.10
2023-02-19T03:42:37.473Z,98.80
2023-02-19T03:45:49.498Z,91.10
2023-02-19T03:48:57.246Z,97.00
2023-02-19T03:52:11.153Z,100.10
2023-02-19T03:55:52.454Z,91.10
2023-02-19T03:59:09.087Z,93.20
2023-02-19T04:02:18.396Z,94.80
2023-02-19T04:05:23.287Z,100.00
2023-02-19T04:08:25.731Z,88.80
2023-02-19T04:11:33.245Z,93.60
2023-02-19T04:14:43.307Z,102.70
2023-02-19T04:17:50.581Z,103.20
2023-02-19T04:20:52.507Z,99.20
2023-02-19T04:23:54.118Z,101.80
2023-02-19T04:26:56.100Z,102.50
2023-02-19T04:29:57.728Z,102.60
2023-02-19T04:32:59.254Z,97.60
2023-02-19T04:36:00.948Z,95.80
2023-02-19T04:39:02.632Z,89.30
2023-02-19T04:42:04.572Z,92.20
2023-02-19T04:45:06.501Z,91.30
2023-02-19T04:48:09.013Z,94.60
2023-02-19T04:51:11.486Z,103.60
2023-02-19T04:54:13.191Z,96.20
2023-02-19T04:57:14.919Z,100.50
2023-02-19T05:00:16.728Z,105.00
2023-02-19T05:03:18.294Z,105.90
2023-02-19T05:06:20.058Z,101.30
2023-02-19T05:09:21.637Z,106.30
2023-02-19T05:12:23.252Z,101.30
2023-02-19T05:15:24.819Z,100.90
2023-02-19T05:18:26.636Z,99.40
2023-02-19T05:21:28.276Z,98.70
2023-02-19T05:24:31.594Z,99.00
2023-02-19T05:27:33.166Z,106.20
2023-02-19T05:30:35.510Z,107.80
2023-02-19T05:33:38.080Z,106.80
2023-02-19T05:36:39.659Z,98.20
2023-02-19T05:39:41.161Z,104.10
2023-02-19T05:42:42.705Z,98.60
2023-02-19T05:45:44.370Z,104.10
2023-02-19T05:48:47.083Z,91.50
2023-02-19T05:51:51.167Z,105.50
2023-02-19T05:54:52.777Z,100.40
2023-02-19T05:57:54.420Z,104.50
2023-02-19T06:00:56.264Z,100.50
2023-02-19T06:03:58.342Z,96.60
2023-02-19T06:06:59.983Z,92.80
2023-02-19T06:10:01.974Z,93.30
2023-02-19T06:13:03.570Z,101.60
2023-02-19T06:16:06.709Z,93.60
2023-02-19T06:19:08.362Z,91.10
2023-02-19T06:22:10.183Z,96.80
2023-02-19T06:25:12.860Z,96.60
2023-02-19T06:28:14.401Z,101.10
2023-02-19T06:31:16.762Z,100.30
2023-02-19T06:34:18.466Z,98.20
2023-02-19T06:37:19.994Z,104.00
2023-02-19T06:40:21.567Z,104.10
2023-02-19T06:43:23.152Z,107.90
2023-02-19T06:46:24.715Z,104.40
2023-02-19T06:49:26.542Z,91.40
2023-02-19T06:52:28.156Z,93.00
2023-02-19T06:55:29.748Z,95.90
2023-02-19T06:58:32.070Z,102.40
2023-02-19T07:01:34.907Z,102.70
2023-02-19T07:04:36.542Z,97.90
2023-02-19T07:07:38.117Z,95.00
2023-02-19T07:10:39.725Z,92.00
2023-02-19T07:13:41.288Z,98.00
2023-02-19T07:16:43.955Z,103.90
2023-02-19T07:19:45.542Z,106.30
2023-02-19T07:22:47.105Z,112.30
2023-02-19T07:25:48.669Z,104.40
2023-02-19T07:28:51.233Z,113.60
2023-02-19T07:31:52.924Z,113.50
2023-02-19T07:34:54.536Z,107.50
2023-02-19T07:37:56.113Z,117.10
2023-02-19T07:41:00.314Z,112.30
2023-02-19T07:44:01.883Z,110.40
2023-02-19T07:47:03.456Z,114.80
2023-02-19T07:50:05.264Z,106.30
2023-02-19T07:53:06.806Z,110.50
2023-02-19T07:56:08.648Z,111.80
2023-02-19T07:59:10.735Z,108.60
2023-02-19T08:02:35.540Z,109.00
2023-02-19T08:05:38.331Z,117.70
2023-02-19T08:08:40.287Z,111.90
2023-02-19T08:12:00.483Z,112.20
2023-02-19T08:15:02.056Z,113.50
2023-02-19T08:18:03.715Z,110.70
2023-02-19T08:21:05.471Z,113.40
2023-02-19T08:24:07.264Z,114.70
2023-02-19T08:27:08.868Z,112.70
2023-02-19T08:30:11.016Z,109.80
2023-02-19T08:33:18.003Z,113.00
2023-02-19T08:36:19.611Z,111.50
2023-02-19T08:39:21.371Z,110.10
2023-02-19T08:42:22.974Z,113.30
2023-02-19T08:45:24.590Z,113.60
2023-02-19T08:48:26.356Z,111.00
2023-02-19T08:51:27.976Z,109.00
2023-02-19T08:54:30.290Z,108.00
2023-02-19T08:57:32.170Z,102.70
2023-02-19T09:00:33.804Z,99.30
2023-02-19T09:03:35.408Z,101.00
2023-02-19T09:06:38.541Z,97.50
2023-02-19T09:09:41.663Z,91.60
2023-02-19T09:12:43.207Z,86.90
2023-02-19T09:15:44.723Z,87.40
2023-02-19T09:18:46.292Z,89.70
2023-02-19T09:21:47.843Z,88.80
2023-02-19T09:24:49.449Z,87.70
2023-02-19T09:27:54.792Z,87.30
2023-02-19T09:30:56.333Z,87.90
2023-02-19T09:33:57.943Z,87.50
2023-02-19T09:36:59.497Z,87.00
2023-02-19T09:40:01.101Z,86.50
2023-02-19T09:43:06.613Z,84.30
2023-02-19T09:46:22.569Z,80.60
2023-02-19T09:49:29.732Z,84.50
2023-02-19T09:52:39.040Z,86.80
2023-02-19T09:55:42.694Z,91.00
2023-02-19T09:58:48.822Z,91.20
2023-02-19T10:01:59.775Z,86.80
2023-02-19T10:05:03.464Z,83.50
2023-02-19T10:08:09.671Z,85.10
2023-02-19T10:11:12.662Z,89.30
2023-02-19T10:14:17.760Z,89.70
2023-02-19T10:17:39.551Z,88.90
2023-02-19T10:20:41.121Z,92.80
2023-02-19T10:23:43.392Z,94.20
2023-02-19T10:26:44.989Z,93.70
2023-02-19T10:29:48.662Z,103.60
2023-02-19T10:33:08.754Z,103.40
2023-02-19T10:36:21.079Z,105.80
2023-02-19T10:39:22.699Z,97.70
2023-02-19T10:42:25.558Z,91.70
2023-02-19T10:45:35.300Z,99.20
2023-02-19T10:48:38.763Z,105.30
2023-02-19T10:51:41.127Z,97.10
2023-02-19T10:54:44.646Z,90.10
2023-02-19T10:57:46.978Z,99.90
2023-02-19T11:00:48.707Z,83.00
2023-02-19T11:03:52.171Z,93.80
2023-02-19T11:06:53.927Z,85.90
2023-02-19T11:09:56.732Z,90.50
2023-02-19T11:13:01.012Z,96.80
2023-02-19T11:16:02.681Z,93.50
2023-02-19T11:19:04.293Z,90.10
2023-02-19T11:22:38.310Z,92.90
2023-02-19T11:25:46.027Z,96.70
2023-02-19T11:28:59.445Z,94.40
2023-02-19T11:32:24.164Z,97.40
2023-02-19T11:35:25.908Z,94.20
2023-02-19T11:38:27.590Z,88.40
2023-02-19T11:42:04.754Z,93.00
2023-02-19T11:45:27.908Z,90.40
2023-02-19T11:52:26.103Z,76.40
2023-02-19T11:55:42.490Z,85.00
2023-02-19T11:59:02.598Z,81.70
2023-02-19T12:02:34.084Z,83.20
2023-02-19T12:05:49.719Z,81.70
2023-02-19T12:09:17.112Z,82.60
2023-02-19T12:12:40.712Z,83.20
2023-02-19T12:19:27.100Z,69.40
2023-02-19T12:22:30.762Z,88.40
2023-02-19T12:25:43.438Z,77.60
2023-02-19T12:29:11.410Z,83.00
2023-02-19T12:32:15.114Z,89.00
2023-02-19T12:35:45.466Z,82.00
2023-02-19T12:39:05.245Z,74.50
2023-02-19T12:42:15.936Z,77.60
2023-02-19T12:45:37.935Z,81.10
2023-02-19T12:48:39.422Z,91.00
2023-02-19T12:51:47.591Z,74.00
2023-02-19T12:54:53.611Z,91.10
2023-02-19T12:57:58.644Z,86.80
2023-02-19T13:04:37.489Z,70.90
2023-02-19T13:08:14.578Z,76.90
2023-02-19T13:11:28.366Z,86.00
2023-02-19T13:14:46.136Z,92.20
2023-02-19T13:17:52.354Z,76.40
2023-02-19T13:20:55.747Z,72.40
2023-02-19T13:24:00.574Z,80.40
2023-02-19T13:27:12.807Z,87.50
2023-02-19T13:30:36.280Z,75.70
2023-02-19T13:33:53.023Z,70.60
2023-02-19T13:36:55.425Z,85.20
2023-02-19T13:39:57.431Z,83.00
2023-02-19T13:43:01.322Z,79.80
2023-02-19T13:46:06.824Z,78.20
2023-02-19T13:49:27.582Z,82.30
2023-02-19T13:52:29.138Z,80.60
2023-02-19T13:55:49.880Z,82.60
2023-02-19T13:59:23.609Z,81.50
2023-02-19T14:02:29.266Z,81.40
2023-02-19T14:06:01.047Z,81.40
2023-02-19T14:09:02.836Z,89.80
2023-02-19T14:12:18.388Z,88.50
2023-02-19T14:15:43.720Z,74.60
2023-02-19T14:18:46.613Z,78.50
2023-02-19T14:21:48.246Z,85.40
2023-02-19T14:24:49.866Z,82.60
2023-02-19T14:27:52.618Z,88.50
2023-02-19T14:31:07.894Z,82.90
2023-02-19T14:34:26.366Z,88.20
2023-02-19T14:37:27.920Z,86.30
2023-02-19T14:40:41.697Z,85.80
2023-02-19T14:43:44.781Z,86.00
2023-02-19T14:46:52.587Z,89.10
2023-02-19T14:49:58.748Z,99.40
2023-02-19T14:53:04.338Z,92.00
2023-02-19T14:56:07.643Z,95.30
2023-02-19T14:59:12.194Z,92.70
2023-02-19T15:02:17.266Z,87.20
2023-02-19T15:05:23.985Z,95.90
2023-02-19T15:08:31.932Z,99.20
2023-02-19T15:11:34.537Z,109.80
2023-02-19T15:14:36.263Z,106.70
2023-02-19T15:17:40.632Z,97.80
2023-02-19T15:20:42.685Z,95.10
2023-02-19T15:23:44.333Z,106.90
2023-02-19T15:26:51.136Z,102.20
2023-02-19T15:29:53.903Z,102.80
2023-02-19T15:32:57.473Z,101.70
2023-02-19T15:36:05.539Z,112.40
2023-02-19T15:39:07.150Z,102.10
2023-02-19T15:42:11.152Z,100.40
2023-02-19T15:48:40.293Z,93.30
2023-02-19T15:51:47.368Z,90.40
2023-02-19T15:54:57.146Z,90.90
2023-02-19T15:58:22.226Z,85.50
2023-02-19T16:01:26.664Z,87.30
2023-02-19T16:04:28.348Z,91.90
2023-02-19T16:07:34.388Z,86.30
2023-02-19T16:10:36.282Z,84.20
2023-02-19T16:13:37.890Z,76.30
2023-02-19T16:16:40.935Z,78.50
2023-02-19T16:19:43.829Z,80.90
2023-02-19T16:22:45.733Z,86.10
2023-02-19T16:25:47.870Z,84.90
2023-02-19T16:28:53.407Z,95.20
2023-02-19T16:32:00.422Z,90.90
2023-02-19T16:35:02.076Z,105.70
2023-02-19T16:38:03.679Z,104.90
2023-02-19T16:41:11.627Z,100.30
2023-02-19T16:44:25.820Z,106.10
2023-02-19T16:47:29.704Z,98.70
2023-02-19T16:50:31.269Z,103.40
2023-02-19T16:53:33.443Z,101.20
2023-02-19T16:56:35.045Z,96.50
2023-02-19T16:59:36.970Z,100.90
2023-02-19T17:02:38.595Z,105.10
2023-02-19T17:05:40.394Z,110.20
2023-02-19T17:08:43.860Z,97.40
2023-02-19T17:11:45.476Z,96.80
2023-02-19T17:14:47.063Z,94.90
2023-02-19T17:17:49.053Z,96.00
2023-02-19T17:20:55.199Z,94.10
2023-02-19T17:23:57.107Z,96.80
2023-02-19T17:26:58.670Z,96.10
2023-02-19T17:30:00.307Z,88.30
2023-02-19T17:33:02.214Z,85.70
2023-02-19T17:36:04.199Z,83.10
2023-02-19T17:39:11.997Z,83.80
2023-02-19T17:42:13.581Z,82.20
2023-02-19T17:45:25.344Z,84.10
2023-02-19T17:48:26.955Z,83.30
2023-02-19T17:51:28.511Z,90.00
2023-02-19T17:54:30.154Z,96.30
2023-02-19T17:57:33.815Z,90.70
2023-02-19T18:00:36.617Z,89.00
2023-02-19T18:03:38.661Z,95.30
2023-02-19T18:06:40.260Z,81.20
2023-02-19T18:09:41.890Z,88.00
2023-02-19T18:12:43.897Z,83.40
2023-02-19T18:15:45.458Z,89.40
2023-02-19T18:18:47.023Z,96.30
2023-02-19T18:21:48.783Z,91.80
2023-02-19T18:24:54.108Z,91.00
2023-02-19T18:27:55.718Z,94.70
2023-02-19T18:30:57.377Z,96.30
2023-02-19T18:33:59.151Z,98.60
2023-02-19T18:37:00.850Z,97.90
2023-02-19T18:40:03.925Z,93.80
2023-02-19T18:43:05.502Z,97.70
2023-02-19T18:46:08.875Z,106.40
2023-02-19T18:49:10.486Z,100.10
2023-02-19T18:52:12.414Z,107.20
2023-02-19T18:55:14.041Z,101.50
2023-02-19T18:58:15.739Z,92.00
2023-02-19T19:01:17.345Z,101.20
2023-02-19T19:04:19.068Z,99.90
2023-02-19T19:07:21.199Z,101.50
2023-02-19T19:10:23.193Z,89.10
2023-02-19T19:13:25.543Z,82.00
2023-02-19T19:16:28.572Z,81.40
2023-02-19T19:19:30.221Z,88.50
2023-02-19T19:22:31.802Z,90.60
2023-02-19T19:25:33.319Z,89.30
2023-02-19T19:28:34.849Z,90.00
2023-02-19T19:31:37.013Z,97.50
2023-02-19T19:34:38.572Z,97.40
2023-02-19T19:37:40.132Z,87.60
2023-02-19T19:40:42.431Z,84.30
2023-02-19T19:43:44.098Z,94.10
2023-02-19T19:46:45.923Z,92.20
2023-02-19T19:49:47.519Z,94.90
2023-02-19T19:52:49.045Z,101.40
2023-02-19T19:55:50.661Z,90.20
2023-02-19T19:58:52.247Z,88.30
2023-02-19T20:01:57.126Z,104.30
2023-02-19T20:04:58.799Z,97.80
2023-02-19T20:08:00.428Z,95.90
2023-02-19T20:11:03.187Z,94.20
2023-02-19T20:14:05.347Z,97.40
2023-02-19T20:17:09.509Z,93.70
2023-02-19T20:20:11.618Z,88.10
2023-02-19T20:23:13.227Z,89.90
2023-02-19T20:26:24.518Z,87.70
2023-02-19T20:29:28.743Z,96.00
2023-02-19T20:32:30.342Z,94.80
2023-02-19T20:35:32.478Z,91.20
2023-02-19T20:38:34.202Z,96.40
2023-02-19T20:41:35.800Z,96.50
2023-02-19T20:44:37.388Z,100.30
2023-02-19T20:47:39.865Z,95.90
2023-02-19T20:50:41.460Z,100.50
2023-02-19T20:53:43.338Z,94.10
2023-02-19T20:56:45.852Z,96.20
2023-02-19T20:59:47.472Z,92.20
2023-02-19T21:02:49.104Z,90.80
2023-02-19T21:05:50.741Z,90.00
2023-02-19T21:08:52.301Z,91.50
2023-02-19T21:11:53.875Z,93.50
2023-02-19T21:14:55.545Z,98.90
2023-02-19T21:17:57.070Z,91.30
2023-02-19T21:20:58.819Z,92.90
2023-02-19T21:24:00.515Z,92.30
2023-02-19T21:27:02.115Z,100.50
2023-02-19T21:30:05.042Z,94.70
2023-02-19T21:33:06.685Z,93.40
2023-02-19T21:36:09.060Z,94.80
2023-02-19T21:39:13.103Z,94.00
2023-02-19T21:42:14.768Z,93.80
2023-02-19T21:45:16.427Z,88.60
2023-02-19T21:48:18.116Z,90.60
2023-02-19T21:51:20.763Z,91.10
2023-02-19T21:54:27.064Z,98.40
2023-02-19T21:57:28.759Z,92.70
2023-02-19T22:00:31.397Z,99.60
2023-02-19T22:03:32.957Z,95.90
2023-02-19T22:06:34.635Z,102.30
2023-02-19T22:09:36.173Z,101.90
2023-02-19T22:12:37.733Z,97.20
2023-02-19T22:15:39.274Z,93.70
2023-02-19T22:18:50.895Z,92.20
2023-02-19T22:21:52.501Z,94.90
2023-02-19T22:24:54.066Z,95.70
2023-02-19T22:27:55.716Z,88.10
2023-02-19T22:30:57.234Z,97.80
2023-02-19T22:33:58.828Z,92.80
2023-02-19T22:37:00.412Z,93.00
2023-02-19T22:40:02.015Z,98.90
2023-02-19T22:43:03.548Z,96.50
2023-02-19T22:46:10.316Z,99.30
2023-02-19T22:49:11.980Z,97.20
2023-02-19T22:52:13.793Z,97.60
2023-02-19T22:55:16.611Z,102.40
2023-02-19T22:58:18.128Z,100.00
2023-02-19T23:01:20.495Z,99.40
2023-02-19T23:04:24.895Z,100.90
2023-02-19T23:07:26.507Z,101.00
2023-02-19T23:10:28.425Z,101.00
2023-02-19T23:13:29.956Z,93.90
2023-02-19T23:16:35.896Z,105.30
2023-02-19T23:19:38.021Z,98.80
2023-02-19T23:22:40.070Z,104.00
2023-02-19T23:25:41.664Z,98.00
2023-02-19T23:28:44.130Z,96.80
2023-02-19T23:31:46.277Z,95.30
2023-02-19T23:34:48.355Z,94.10
2023-02-19T23:37:49.933Z,99.90
2023-02-19T23:40:51.521Z,92.70
2023-02-19T23:43:53.394Z,97.20
2023-02-19T23:46:55.092Z,93.80
2023-02-19T23:49:56.630Z,95.10
2023-02-19T23:52:59.287Z,96.40
2023-02-19T23:56:00.925Z,94.00
2023-02-19T23:59:02.566Z,100.00
